AV6 weather

CLOSED Stuart Lake Water Aerodrome
Fort St. James, British Columbia, Canada

Public forecast

Using degrees Celsius for public forecast. Weather courtesy of forecast.io.

METAR (pilot weather report)

Closest report is Mackenzie Airport, 65.5 nm (121.3 km) NE. Retrieved 2019/08/25 03:00 UTC (34 minutes ago):

CYZY 250300Z AUTO 00000KT 9SM OVC080 15/08 A2980 RMK SLP101 DENSITY ALT 2900FT

TAF (pilot weather forecast)

Closest forecast is Mackenzie Airport, 65.5 nm (121.3 km) NE. Retrieved 2019/08/25 01:00 UTC (3 hours ago):

TAF CYZY 250038Z 2501/2509 25010KT P6SM BKN070 TEMPO 2501/2509 P6SM -SHRA BKN030 BECMG 2503/2505 VRB03KT RMK FCST BASED ON AUTO OBS. NXT FCST BY 250700Z